sensor_id;sensor_type;location;lat;lon;timestamp;pressure;altitude;pressure_sealevel;temperature;humidity
18985;BME280;9626;52.552;13.436;2023-10-31T00:00:06;98960.66;;;11.70;100.00
18985;BME280;9626;52.552;13.436;2023-10-31T00:02:32;98965.50;;;11.79;100.00
18985;BME280;9626;52.552;13.436;2023-10-31T00:04:58;98963.94;;;11.75;100.00
18985;BME280;9626;52.552;13.436;2023-10-31T00:07:24;98965.03;;;11.71;100.00
18985;BME280;9626;52.552;13.436;2023-10-31T00:09:50;98966.44;;;11.78;100.00
18985;BME280;9626;52.552;13.436;2023-10-31T00:12:16;98968.06;;;11.81;100.00
18985;BME280;9626;52.552;13.436;2023-10-31T00:14:42;98968.47;;;11.73;100.00
18985;BME280;9626;52.552;13.436;2023-10-31T00:17:08;98976.56;;;11.70;100.00
18985;BME280;9626;52.552;13.436;2023-10-31T00:19:34;98966.19;;;11.65;100.00
18985;BME280;9626;52.552;13.436;2023-10-31T00:22:00;98960.22;;;11.62;100.00
18985;BME280;9626;52.552;13.436;2023-10-31T00:24:26;98982.19;;;11.64;100.00
18985;BME280;9626;52.552;13.436;2023-10-31T00:26:52;98976.03;;;11.63;100.00
18985;BME280;9626;52.552;13.436;2023-10-31T00:29:19;98981.41;;;11.62;100.00
18985;BME280;9626;52.552;13.436;2023-10-31T00:31:47;98988.56;;;11.60;100.00
18985;BME280;9626;52.552;13.436;2023-10-31T00:34:13;98987.81;;;11.58;100.00
18985;BME280;9626;52.552;13.436;2023-10-31T00:36:39;98980.78;;;11.57;100.00
18985;BME280;9626;52.552;13.436;2023-10-31T00:39:05;98954.56;;;11.50;100.00
18985;BME280;9626;52.552;13.436;2023-10-31T00:41:34;98959.28;;;11.45;100.00
18985;BME280;9626;52.552;13.436;2023-10-31T00:44:00;98958.31;;;11.46;100.00
18985;BME280;9626;52.552;13.436;2023-10-31T00:46:26;98947.16;;;11.57;100.00
18985;BME280;9626;52.552;13.436;2023-10-31T00:48:52;98959.75;;;11.54;100.00
18985;BME280;9626;52.552;13.436;2023-10-31T00:51:18;98950.53;;;11.43;100.00
18985;BME280;9626;52.552;13.436;2023-10-31T00:53:45;98939.00;;;11.44;100.00
18985;BME280;9626;52.552;13.436;2023-10-31T00:56:11;98962.63;;;11.49;100.00
18985;BME280;9626;52.552;13.436;2023-10-31T00:58:38;98953.19;;;11.43;100.00
18985;BME280;9626;52.552;13.436;2023-10-31T01:01:05;98959.41;;;11.42;100.00
18985;BME280;9626;52.552;13.436;2023-10-31T01:03:31;98963.03;;;11.41;100.00
18985;BME280;9626;52.552;13.436;2023-10-31T01:05:57;98969.09;;;11.43;100.00
18985;BME280;9626;52.552;13.436;2023-10-31T01:08:23;98962.22;;;11.39;100.00
18985;BME280;9626;52.552;13.436;2023-10-31T01:10:49;98960.50;;;11.38;100.00
18985;BME280;9626;52.552;13.436;2023-10-31T01:13:15;98948.97;;;11.39;100.00
18985;BME280;9626;52.552;13.436;2023-10-31T01:15:41;98941.94;;;11.38;100.00
18985;BME280;9626;52.552;13.436;2023-10-31T01:18:07;98932.31;;;11.37;100.00
18985;BME280;9626;52.552;13.436;2023-10-31T01:20:33;98927.06;;;11.53;100.00
18985;BME280;9626;52.552;13.436;2023-10-31T01:22:59;98928.16;;;11.49;100.00
18985;BME280;9626;52.552;13.436;2023-10-31T01:25:25;98919.34;;;11.48;100.00
18985;BME280;9626;52.552;13.436;2023-10-31T01:27:51;98911.25;;;11.52;100.00
18985;BME280;9626;52.552;13.436;2023-10-31T01:30:17;98908.38;;;11.56;100.00
18985;BME280;9626;52.552;13.436;2023-10-31T01:32:44;98901.09;;;11.60;100.00
18985;BME280;9626;52.552;13.436;2023-10-31T01:35:10;98893.47;;;11.54;100.00
18985;BME280;9626;52.552;13.436;2023-10-31T01:37:36;98876.97;;;11.48;100.00
18985;BME280;9626;52.552;13.436;2023-10-31T01:40:02;98878.97;;;11.43;100.00
18985;BME280;9626;52.552;13.436;2023-10-31T01:42:29;98891.69;;;11.37;100.00
18985;BME280;9626;52.552;13.436;2023-10-31T01:44:56;98911.25;;;11.34;100.00
18985;BME280;9626;52.552;13.436;2023-10-31T01:47:22;98918.59;;;11.29;100.00
18985;BME280;9626;52.552;13.436;2023-10-31T01:49:51;98904.84;;;11.21;100.00
18985;BME280;9626;52.552;13.436;2023-10-31T01:52:18;98897.44;;;11.27;100.00
18985;BME280;9626;52.552;13.436;2023-10-31T01:54:44;98894.81;;;11.27;100.00
18985;BME280;9626;52.552;13.436;2023-10-31T01:57:10;98891.78;;;11.18;100.00
18985;BME280;9626;52.552;13.436;2023-10-31T01:59:37;98891.78;;;11.18;100.00
18985;BME280;9626;52.552;13.436;2023-10-31T02:02:03;98896.44;;;11.12;100.00
18985;BME280;9626;52.552;13.436;2023-10-31T02:04:29;98890.47;;;11.09;100.00
18985;BME280;9626;52.552;13.436;2023-10-31T02:06:55;98886.34;;;11.03;100.00
18985;BME280;9626;52.552;13.436;2023-10-31T02:09:21;98880.31;;;10.99;100.00
18985;BME280;9626;52.552;13.436;2023-10-31T02:11:52;98867.16;;;10.98;100.00
18985;BME280;9626;52.552;13.436;2023-10-31T02:14:18;98866.28;;;10.97;100.00
18985;BME280;9626;52.552;13.436;2023-10-31T02:16:44;98861.53;;;11.04;100.00
18985;BME280;9626;52.552;13.436;2023-10-31T02:19:12;98877.44;;;11.04;100.00
18985;BME280;9626;52.552;13.436;2023-10-31T02:21:40;98864.19;;;11.04;100.00
18985;BME280;9626;52.552;13.436;2023-10-31T02:24:06;98852.50;;;11.08;100.00
18985;BME280;9626;52.552;13.436;2023-10-31T02:26:34;98847.06;;;11.11;100.00
18985;BME280;9626;52.552;13.436;2023-10-31T02:29:01;98860.41;;;11.10;100.00
18985;BME280;9626;52.552;13.436;2023-10-31T02:31:27;98843.94;;;11.03;100.00
18985;BME280;9626;52.552;13.436;2023-10-31T02:33:53;98845.81;;;11.01;100.00
18985;BME280;9626;52.552;13.436;2023-10-31T02:36:20;98829.44;;;11.10;100.00
18985;BME280;9626;52.552;13.436;2023-10-31T02:38:46;98826.44;;;11.01;100.00
18985;BME280;9626;52.552;13.436;2023-10-31T02:41:12;98823.91;;;10.97;100.00
18985;BME280;9626;52.552;13.436;2023-10-31T02:43:39;98837.41;;;10.93;100.00
18985;BME280;9626;52.552;13.436;2023-10-31T02:46:05;98845.34;;;10.93;100.00
18985;BME280;9626;52.552;13.436;2023-10-31T02:48:31;98846.44;;;10.89;100.00
18985;BME280;9626;52.552;13.436;2023-10-31T02:51:07;98844.88;;;10.85;100.00
18985;BME280;9626;52.552;13.436;2023-10-31T02:53:34;98843.31;;;10.80;100.00
18985;BME280;9626;52.552;13.436;2023-10-31T02:56:00;98843.56;;;10.76;100.00
18985;BME280;9626;52.552;13.436;2023-10-31T02:58:26;98834.72;;;10.75;100.00
18985;BME280;9626;52.552;13.436;2023-10-31T03:00:52;98838.31;;;10.74;100.00
18985;BME280;9626;52.552;13.436;2023-10-31T03:03:18;98833.66;;;10.79;100.00
18985;BME280;9626;52.552;13.436;2023-10-31T03:05:44;98835.38;;;10.80;100.00
18985;BME280;9626;52.552;13.436;2023-10-31T03:08:10;98820.66;;;10.75;100.00
18985;BME280;9626;52.552;13.436;2023-10-31T03:10:41;98818.16;;;10.72;100.00
18985;BME280;9626;52.552;13.436;2023-10-31T03:13:07;98827.97;;;10.70;100.00
18985;BME280;9626;52.552;13.436;2023-10-31T03:15:33;98828.03;;;10.68;100.00
18985;BME280;9626;52.552;13.436;2023-10-31T03:17:59;98820.25;;;10.65;100.00
18985;BME280;9626;52.552;13.436;2023-10-31T03:20:25;98816.75;;;10.64;100.00
18985;BME280;9626;52.552;13.436;2023-10-31T03:22:51;98807.03;;;10.65;100.00
18985;BME280;9626;52.552;13.436;2023-10-31T03:25:17;98824.75;;;10.63;100.00
18985;BME280;9626;52.552;13.436;2023-10-31T03:27:43;98822.91;;;10.65;100.00
18985;BME280;9626;52.552;13.436;2023-10-31T03:30:09;98824.75;;;10.63;100.00
18985;BME280;9626;52.552;13.436;2023-10-31T03:32:36;98827.41;;;10.63;100.00
18985;BME280;9626;52.552;13.436;2023-10-31T03:35:02;98823.03;;;10.62;100.00
18985;BME280;9626;52.552;13.436;2023-10-31T03:37:28;98834.34;;;10.65;100.00
18985;BME280;9626;52.552;13.436;2023-10-31T03:39:54;98827.25;;;10.66;100.00
18985;BME280;9626;52.552;13.436;2023-10-31T03:42:20;98827.97;;;10.70;100.00
18985;BME280;9626;52.552;13.436;2023-10-31T03:44:45;98829.59;;;10.72;100.00
18985;BME280;9626;52.552;13.436;2023-10-31T03:47:11;98829.59;;;10.72;100.00
18985;BME280;9626;52.552;13.436;2023-10-31T03:49:39;98825.88;;;10.76;100.00
18985;BME280;9626;52.552;13.436;2023-10-31T03:52:05;98835.44;;;10.79;100.00
18985;BME280;9626;52.552;13.436;2023-10-31T03:54:31;98833.72;;;10.78;100.00
18985;BME280;9626;52.552;13.436;2023-10-31T03:56:57;98836.38;;;10.78;100.00
18985;BME280;9626;52.552;13.436;2023-10-31T03:59:23;98839.91;;;10.78;100.00
18985;BME280;9626;52.552;13.436;2023-10-31T04:01:49;98837.16;;;10.80;100.00
18985;BME280;9626;52.552;13.436;2023-10-31T04:04:15;98838.84;;;10.81;100.00
18985;BME280;9626;52.552;13.436;2023-10-31T04:06:41;98838.84;;;10.81;100.00
18985;BME280;9626;52.552;13.436;2023-10-31T04:09:07;98835.44;;;10.79;100.00
18985;BME280;9626;52.552;13.436;2023-10-31T04:11:34;98834.44;;;10.81;100.00
18985;BME280;9626;52.552;13.436;2023-10-31T04:14:00;98841.47;;;10.82;100.00
18985;BME280;9626;52.552;13.436;2023-10-31T04:16:26;98835.38;;;10.80;100.00
18985;BME280;9626;52.552;13.436;2023-10-31T04:18:51;98837.16;;;10.80;100.00
18985;BME280;9626;52.552;13.436;2023-10-31T04:21:17;98834.66;;;10.77;100.00
18985;BME280;9626;52.552;13.436;2023-10-31T04:23:43;98839.91;;;10.78;100.00
18985;BME280;9626;52.552;13.436;2023-10-31T04:26:09;98832.25;;;10.72;100.00
18985;BME280;9626;52.552;13.436;2023-10-31T04:28:35;98831.31;;;10.73;100.00
18985;BME280;9626;52.552;13.436;2023-10-31T04:31:02;98833.00;;;10.74;100.00
18985;BME280;9626;52.552;13.436;2023-10-31T04:33:29;98824.31;;;10.72;100.00
18985;BME280;9626;52.552;13.436;2023-10-31T04:35:55;98822.75;;;10.68;100.00
18985;BME280;9626;52.552;13.436;2023-10-31T04:38:21;98822.75;;;10.68;100.00
18985;BME280;9626;52.552;13.436;2023-10-31T04:40:47;98818.28;;;10.69;100.00
18985;BME280;9626;52.552;13.436;2023-10-31T04:43:13;98820.88;;;10.70;100.00
18985;BME280;9626;52.552;13.436;2023-10-31T04:45:39;98822.66;;;10.70;100.00
18985;BME280;9626;52.552;13.436;2023-10-31T04:48:05;98826.03;;;10.73;100.00
18985;BME280;9626;52.552;13.436;2023-10-31T04:50:31;98816.28;;;10.74;100.00
18985;BME280;9626;52.552;13.436;2023-10-31T04:52:57;98814.66;;;10.71;100.00
18985;BME280;9626;52.552;13.436;2023-10-31T04:55:24;98810.16;;;10.73;100.00
18985;BME280;9626;52.552;13.436;2023-10-31T04:57:50;98811.84;;;10.74;100.00
18985;BME280;9626;52.552;13.436;2023-10-31T05:00:17;98818.78;;;10.77;100.00
18985;BME280;9626;52.552;13.436;2023-10-31T05:02:43;98820.41;;;10.79;100.00
18985;BME280;9626;52.552;13.436;2023-10-31T05:05:09;98818.72;;;10.78;100.00
18985;BME280;9626;52.552;13.436;2023-10-31T05:07:35;98815.13;;;10.79;100.00
18985;BME280;9626;52.552;13.436;2023-10-31T05:10:01;98823.69;;;10.85;100.00
18985;BME280;9626;52.552;13.436;2023-10-31T05:12:27;98820.28;;;10.82;100.00
18985;BME280;9626;52.552;13.436;2023-10-31T05:14:53;98825.56;;;10.82;100.00
18985;BME280;9626;52.552;13.436;2023-10-31T05:17:19;98818.41;;;10.85;100.00
18985;BME280;9626;52.552;13.436;2023-10-31T05:19:45;98818.56;;;10.81;100.00
18985;BME280;9626;52.552;13.436;2023-10-31T05:22:11;98827.19;;;10.85;100.00
18985;BME280;9626;52.552;13.436;2023-10-31T05:24:37;98825.31;;;10.87;100.00
18985;BME280;9626;52.552;13.436;2023-10-31T05:27:03;98825.41;;;10.86;100.00
18985;BME280;9626;52.552;13.436;2023-10-31T05:29:30;98831.63;;;10.85;100.00
18985;BME280;9626;52.552;13.436;2023-10-31T05:31:56;98821.97;;;10.83;100.00
18985;BME280;9626;52.552;13.436;2023-10-31T05:34:22;98830.72;;;10.86;100.00
18985;BME280;9626;52.552;13.436;2023-10-31T05:36:48;98829.06;;;10.83;100.00
18985;BME280;9626;52.552;13.436;2023-10-31T05:39:14;98832.63;;;10.82;100.00
18985;BME280;9626;52.552;13.436;2023-10-31T05:41:41;98829.06;;;10.83;100.00
18985;BME280;9626;52.552;13.436;2023-10-31T05:44:07;98828.97;;;10.85;100.00
18985;BME280;9626;52.552;13.436;2023-10-31T05:46:40;98823.69;;;10.85;100.00
18985;BME280;9626;52.552;13.436;2023-10-31T05:49:07;98829.16;;;10.81;100.00
18985;BME280;9626;52.552;13.436;2023-10-31T05:51:33;98828.81;;;10.88;100.00
18985;BME280;9626;52.552;13.436;2023-10-31T05:54:01;98837.72;;;10.87;100.00
18985;BME280;9626;52.552;13.436;2023-10-31T05:56:27;98836.75;;;10.88;100.00
18985;BME280;9626;52.552;13.436;2023-10-31T05:58:53;98836.84;;;10.86;100.00
18985;BME280;9626;52.552;13.436;2023-10-31T06:01:19;98846.59;;;10.86;100.00
18985;BME280;9626;52.552;13.436;2023-10-31T06:03:45;98851.56;;;10.92;100.00
18985;BME280;9626;52.552;13.436;2023-10-31T06:06:12;98844.56;;;10.91;100.00
18985;BME280;9626;52.552;13.436;2023-10-31T06:08:39;98852.44;;;10.92;100.00
18985;BME280;9626;52.552;13.436;2023-10-31T06:11:05;98850.88;;;10.88;100.00
18985;BME280;9626;52.552;13.436;2023-10-31T06:13:31;98855.09;;;10.92;100.00
18985;BME280;9626;52.552;13.436;2023-10-31T06:15:57;98852.44;;;10.92;100.00
18985;BME280;9626;52.552;13.436;2023-10-31T06:18:27;98856.78;;;10.93;100.00
18985;BME280;9626;52.552;13.436;2023-10-31T06:20:55;98864.59;;;10.96;100.00
18985;BME280;9626;52.552;13.436;2023-10-31T06:23:21;98864.19;;;11.04;100.00
18985;BME280;9626;52.552;13.436;2023-10-31T06:25:48;98872.28;;;11.01;100.00
18985;BME280;9626;52.552;13.436;2023-10-31T06:28:14;98863.41;;;11.02;100.00
18985;BME280;9626;52.552;13.436;2023-10-31T06:30:40;98872.13;;;11.04;100.00
18985;BME280;9626;52.552;13.436;2023-10-31T06:33:06;98873.84;;;11.05;100.00
18985;BME280;9626;52.552;13.436;2023-10-31T06:35:33;98885.00;;;11.12;100.00
18985;BME280;9626;52.552;13.436;2023-10-31T06:38:00;98884.00;;;11.14;100.00
18985;BME280;9626;52.552;13.436;2023-10-31T06:40:26;98891.78;;;11.18;100.00
18985;BME280;9626;52.552;13.436;2023-10-31T06:42:52;98895.22;;;11.20;100.00
18985;BME280;9626;52.552;13.436;2023-10-31T06:45:19;98892.41;;;11.23;100.00
18985;BME280;9626;52.552;13.436;2023-10-31T06:47:45;98901.28;;;11.22;100.00
18985;BME280;9626;52.552;13.436;2023-10-31T06:50:11;98887.94;;;11.23;100.00
18985;BME280;9626;52.552;13.436;2023-10-31T06:52:37;98900.28;;;11.24;100.00
18985;BME280;9626;52.552;13.436;2023-10-31T06:55:03;98899.19;;;11.28;100.00
18985;BME280;9626;52.552;13.436;2023-10-31T06:57:29;98905.25;;;11.30;100.00
18985;BME280;9626;52.552;13.436;2023-10-31T06:59:56;98910.56;;;11.30;100.00
18985;BME280;9626;52.552;13.436;2023-10-31T07:02:22;98913.97;;;11.32;100.00
18985;BME280;9626;52.552;13.436;2023-10-31T07:04:47;98902.38;;;11.35;100.00
18985;BME280;9626;52.552;13.436;2023-10-31T07:07:14;98908.28;;;11.40;100.00
18985;BME280;9626;52.552;13.436;2023-10-31T07:09:40;98906.41;;;11.42;100.00
18985;BME280;9626;52.552;13.436;2023-10-31T07:12:06;98900.97;;;11.45;100.00
18985;BME280;9626;52.552;13.436;2023-10-31T07:14:32;98912.34;;;11.47;100.00
18985;BME280;9626;52.552;13.436;2023-10-31T07:16:58;98914.91;;;11.49;100.00
18985;BME280;9626;52.552;13.436;2023-10-31T07:19:24;98922.84;;;11.49;100.00
18985;BME280;9626;52.552;13.436;2023-10-31T07:21:50;98929.78;;;11.52;100.00
18985;BME280;9626;52.552;13.436;2023-10-31T07:24:16;98942.13;;;11.53;100.00
18985;BME280;9626;52.552;13.436;2023-10-31T07:26:42;98953.34;;;11.58;100.00
18985;BME280;9626;52.552;13.436;2023-10-31T07:29:08;98951.94;;;11.50;100.00
18985;BME280;9626;52.552;13.436;2023-10-31T07:31:35;98958.19;;;11.49;100.00
18985;BME280;9626;52.552;13.436;2023-10-31T07:34:04;98942.59;;;11.43;100.00
18985;BME280;9626;52.552;13.436;2023-10-31T07:36:31;98939.72;;;11.48;100.00
18985;BME280;9626;52.552;13.436;2023-10-31T07:39:01;98941.50;;;11.47;100.00
18985;BME280;9626;52.552;13.436;2023-10-31T07:41:27;98930.88;;;11.47;100.00
18985;BME280;9626;52.552;13.436;2023-10-31T07:43:53;98938.91;;;11.46;100.00
18985;BME280;9626;52.552;13.436;2023-10-31T07:46:19;98936.09;;;11.49;100.00
18985;BME280;9626;52.552;13.436;2023-10-31T07:48:45;98941.66;;;11.44;100.00
18985;BME280;9626;52.552;13.436;2023-10-31T07:51:11;98941.75;;;11.43;100.00
18985;BME280;9626;52.552;13.436;2023-10-31T07:53:37;98939.16;;;11.41;100.00
18985;BME280;9626;52.552;13.436;2023-10-31T07:56:03;98941.81;;;11.41;100.00
18985;BME280;9626;52.552;13.436;2023-10-31T07:58:29;98939.16;;;11.41;100.00
18985;BME280;9626;52.552;13.436;2023-10-31T08:00:55;98946.50;;;11.36;100.00
18985;BME280;9626;52.552;13.436;2023-10-31T08:03:24;98945.56;;;11.37;100.00
18985;BME280;9626;52.552;13.436;2023-10-31T08:05:51;98940.41;;;11.34;100.00
18985;BME280;9626;52.552;13.436;2023-10-31T08:08:17;98938.91;;;11.28;100.00
18985;BME280;9626;52.552;13.436;2023-10-31T08:10:43;98929.88;;;11.32;100.00
18985;BME280;9626;52.552;13.436;2023-10-31T08:13:09;98937.19;;;11.27;100.00
18985;BME280;9626;52.552;13.436;2023-10-31T08:15:35;98954.81;;;11.28;100.00
18985;BME280;9626;52.552;13.436;2023-10-31T08:18:01;98931.75;;;11.30;100.00
18985;BME280;9626;52.552;13.436;2023-10-31T08:20:27;98958.00;;;11.35;100.00
18985;BME280;9626;52.552;13.436;2023-10-31T08:22:58;98945.78;;;11.32;100.00
18985;BME280;9626;52.552;13.436;2023-10-31T08:25:25;98950.38;;;11.29;100.00
18985;BME280;9626;52.552;13.436;2023-10-31T08:27:51;98952.09;;;11.30;100.00
18985;BME280;9626;52.552;13.436;2023-10-31T08:30:17;98965.56;;;11.25;100.00
18985;BME280;9626;52.552;13.436;2023-10-31T08:32:43;98961.28;;;11.23;100.00
18985;BME280;9626;52.552;13.436;2023-10-31T08:35:09;98968.38;;;11.22;100.00
18985;BME280;9626;52.552;13.436;2023-10-31T08:37:36;98980.00;;;11.20;100.00
18985;BME280;9626;52.552;13.436;2023-10-31T08:40:04;98982.63;;;11.20;100.00
18985;BME280;9626;52.552;13.436;2023-10-31T08:42:30;98986.94;;;11.22;100.00
18985;BME280;9626;52.552;13.436;2023-10-31T08:44:56;98976.25;;;11.24;100.00
18985;BME280;9626;52.552;13.436;2023-10-31T08:47:22;98982.88;;;11.32;100.00
18985;BME280;9626;52.552;13.436;2023-10-31T08:49:49;98976.41;;;11.38;100.00
18985;BME280;9626;52.552;13.436;2023-10-31T08:52:15;98985.31;;;11.37;100.00
18985;BME280;9626;52.552;13.436;2023-10-31T08:54:41;98988.72;;;11.39;100.00
18985;BME280;9626;52.552;13.436;2023-10-31T08:57:07;99014.47;;;11.37;100.00
18985;BME280;9626;52.552;13.436;2023-10-31T08:59:33;98984.50;;;11.35;100.00
18985;BME280;9626;52.552;13.436;2023-10-31T09:01:59;98994.34;;;11.33;100.00
18985;BME280;9626;52.552;13.436;2023-10-31T09:04:25;98997.94;;;11.32;100.00
18985;BME280;9626;52.552;13.436;2023-10-31T09:06:51;98999.69;;;11.31;100.00
18985;BME280;9626;52.552;13.436;2023-10-31T09:09:17;98997.94;;;11.32;100.00
18985;BME280;9626;52.552;13.436;2023-10-31T09:11:43;99004.78;;;11.36;100.00
18985;BME280;9626;52.552;13.436;2023-10-31T09:14:10;99003.91;;;11.36;100.00
18985;BME280;9626;52.552;13.436;2023-10-31T09:16:36;99027.56;;;11.40;100.00
18985;BME280;9626;52.552;13.436;2023-10-31T09:19:02;99030.97;;;11.42;100.00
18985;BME280;9626;52.552;13.436;2023-10-31T09:21:28;99023.19;;;11.57;100.00
18985;BME280;9626;52.552;13.436;2023-10-31T09:23:54;99007.09;;;12.30;100.00
18985;BME280;9626;52.552;13.436;2023-10-31T09:26:20;99010.91;;;12.58;100.00
18985;BME280;9626;52.552;13.436;2023-10-31T09:28:46;99033.03;;;12.07;100.00
18985;BME280;9626;52.552;13.436;2023-10-31T09:31:18;99016.03;;;11.76;100.00
18985;BME280;9626;52.552;13.436;2023-10-31T09:33:48;99015.88;;;11.62;100.00
18985;BME280;9626;52.552;13.436;2023-10-31T09:36:14;99018.75;;;11.57;100.00
18985;BME280;9626;52.552;13.436;2023-10-31T09:38:40;99012.59;;;11.57;100.00
18985;BME280;9626;52.552;13.436;2023-10-31T09:41:07;99029.66;;;11.51;100.00
18985;BME280;9626;52.552;13.436;2023-10-31T09:43:33;99040.19;;;11.53;100.00
18985;BME280;9626;52.552;13.436;2023-10-31T09:45:59;99050.72;;;11.54;100.00
18985;BME280;9626;52.552;13.436;2023-10-31T09:48:30;99050.00;;;11.50;100.00
18985;BME280;9626;52.552;13.436;2023-10-31T09:50:57;99033.97;;;11.54;100.00
18985;BME280;9626;52.552;13.436;2023-10-31T09:53:24;99037.38;;;11.56;100.00
18985;BME280;9626;52.552;13.436;2023-10-31T09:55:51;99043.78;;;11.52;100.00
18985;BME280;9626;52.552;13.436;2023-10-31T09:58:19;99045.72;;;11.48;100.00
18985;BME280;9626;52.552;13.436;2023-10-31T10:00:45;99083.44;;;11.53;100.00
18985;BME280;9626;52.552;13.436;2023-10-31T10:03:12;99053.13;;;11.59;100.00
18985;BME280;9626;52.552;13.436;2023-10-31T10:05:39;99073.03;;;11.67;100.00
18985;BME280;9626;52.552;13.436;2023-10-31T10:08:06;99068.50;;;11.70;100.00
18985;BME280;9626;52.552;13.436;2023-10-31T10:10:35;99075.53;;;11.71;100.00
18985;BME280;9626;52.552;13.436;2023-10-31T10:13:02;99076.41;;;11.71;100.00
18985;BME280;9626;52.552;13.436;2023-10-31T10:15:29;99068.91;;;11.62;100.00
18985;BME280;9626;52.552;13.436;2023-10-31T10:17:57;99079.41;;;11.63;100.00
18985;BME280;9626;52.552;13.436;2023-10-31T10:20:23;99080.06;;;11.69;100.00
18985;BME280;9626;52.552;13.436;2023-10-31T10:22:49;99076.25;;;11.74;100.00
18985;BME280;9626;52.552;13.436;2023-10-31T10:25:17;99072.16;;;11.84;100.00
18985;BME280;9626;52.552;13.436;2023-10-31T10:27:45;99097.75;;;11.86;100.00
18985;BME280;9626;52.552;13.436;2023-10-31T10:30:12;99080.63;;;11.75;100.00
18985;BME280;9626;52.552;13.436;2023-10-31T10:32:39;99075.06;;;11.80;100.00
18985;BME280;9626;52.552;13.436;2023-10-31T10:35:06;99081.84;;;11.86;100.00
18985;BME280;9626;52.552;13.436;2023-10-31T10:37:32;99085.34;;;11.86;100.00
18985;BME280;9626;52.552;13.436;2023-10-31T10:40:00;99078.44;;;11.83;100.00
18985;BME280;9626;52.552;13.436;2023-10-31T10:42:44;99087.00;;;11.89;100.00
18985;BME280;9626;52.552;13.436;2023-10-31T10:45:10;99079.03;;;11.89;100.00
18985;BME280;9626;52.552;13.436;2023-10-31T10:47:47;99078.78;;;11.95;100.00
18985;BME280;9626;52.552;13.436;2023-10-31T10:50:13;99083.69;;;12.03;100.00
18985;BME280;9626;52.552;13.436;2023-10-31T10:52:44;99081.50;;;12.11;100.00
18985;BME280;9626;52.552;13.436;2023-10-31T10:55:17;99075.66;;;12.04;100.00
18985;BME280;9626;52.552;13.436;2023-10-31T10:58:08;99080.34;;;11.99;100.00
18985;BME280;9626;52.552;13.436;2023-10-31T11:00:38;99066.81;;;12.04;100.00
18985;BME280;9626;52.552;13.436;2023-10-31T11:03:06;99075.75;;;12.03;100.00
18985;BME280;9626;52.552;13.436;2023-10-31T11:05:35;99071.13;;;12.06;100.00
18985;BME280;9626;52.552;13.436;2023-10-31T11:08:01;99076.66;;;12.19;100.00
18985;BME280;9626;52.552;13.436;2023-10-31T11:10:29;99072.91;;;12.57;100.00
18985;BME280;9626;52.552;13.436;2023-10-31T11:12:55;99072.47;;;12.48;100.00
18985;BME280;9626;52.552;13.436;2023-10-31T11:15:25;99074.91;;;12.36;100.00
18985;BME280;9626;52.552;13.436;2023-10-31T11:17:52;99067.03;;;12.34;100.00
18985;BME280;9626;52.552;13.436;2023-10-31T11:20:20;99072.66;;;12.28;100.00
18985;BME280;9626;52.552;13.436;2023-10-31T11:22:47;99077.78;;;12.31;100.00
18985;BME280;9626;52.552;13.436;2023-10-31T11:25:21;99087.47;;;12.32;100.00
18985;BME280;9626;52.552;13.436;2023-10-31T11:27:53;99081.41;;;12.30;100.00
18985;BME280;9626;52.552;13.436;2023-10-31T11:32:54;99099.34;;;12.25;100.00
18985;BME280;9626;52.552;13.436;2023-10-31T11:35:21;99094.97;;;12.24;100.00
18985;BME280;9626;52.552;13.436;2023-10-31T11:37:49;99087.94;;;12.23;100.00
18985;BME280;9626;52.552;13.436;2023-10-31T11:40:26;99084.84;;;12.14;100.00
18985;BME280;9626;52.552;13.436;2023-10-31T11:42:53;99088.38;;;12.15;100.00
18985;BME280;9626;52.552;13.436;2023-10-31T11:45:48;99110.44;;;12.15;100.00
18985;BME280;9626;52.552;13.436;2023-10-31T11:48:15;99104.03;;;12.20;100.00
18985;BME280;9626;52.552;13.436;2023-10-31T11:50:42;99109.25;;;12.21;100.00
18985;BME280;9626;52.552;13.436;2023-10-31T11:53:11;99103.13;;;12.21;100.00
18985;BME280;9626;52.552;13.436;2023-10-31T11:55:43;99112.47;;;12.28;100.00
18985;BME280;9626;52.552;13.436;2023-10-31T11:58:23;99130.88;;;12.31;100.00
18985;BME280;9626;52.552;13.436;2023-10-31T12:00:52;99129.84;;;12.33;100.00
18985;BME280;9626;52.552;13.436;2023-10-31T12:03:20;99140.91;;;12.59;100.00
18985;BME280;9626;52.552;13.436;2023-10-31T12:05:54;99136.41;;;12.77;100.00
18985;BME280;9626;52.552;13.436;2023-10-31T12:08:31;99132.88;;;12.61;100.00
18985;BME280;9626;52.552;13.436;2023-10-31T12:11:13;99133.44;;;12.50;100.00
18985;BME280;9626;52.552;13.436;2023-10-31T12:13:51;99138.28;;;12.42;100.00
18985;BME280;9626;52.552;13.436;2023-10-31T12:16:18;99144.00;;;12.34;100.00
18985;BME280;9626;52.552;13.436;2023-10-31T12:18:44;99136.97;;;12.33;100.00
18985;BME280;9626;52.552;13.436;2023-10-31T12:21:10;99134.63;;;12.27;100.00
18985;BME280;9626;52.552;13.436;2023-10-31T12:23:40;99143.53;;;12.26;100.00
18985;BME280;9626;52.552;13.436;2023-10-31T12:26:06;99145.56;;;12.21;100.00
18985;BME280;9626;52.552;13.436;2023-10-31T12:28:32;99152.50;;;12.23;100.00
18985;BME280;9626;52.552;13.436;2023-10-31T12:30:58;99159.00;;;12.17;100.00
18985;BME280;9626;52.552;13.436;2023-10-31T12:33:27;99161.50;;;12.21;100.00
18985;BME280;9626;52.552;13.436;2023-10-31T12:36:00;99162.66;;;12.15;100.00
18985;BME280;9626;52.552;13.436;2023-10-31T12:38:27;99162.56;;;12.16;100.00
18985;BME280;9626;52.552;13.436;2023-10-31T12:40:53;99163.81;;;12.27;100.00
18985;BME280;9626;52.552;13.436;2023-10-31T12:43:21;99162.72;;;12.31;100.00
18985;BME280;9626;52.552;13.436;2023-10-31T12:45:47;99177.31;;;12.22;100.00
18985;BME280;9626;52.552;13.436;2023-10-31T12:48:13;99178.94;;;12.07;100.00
18985;BME280;9626;52.552;13.436;2023-10-31T12:50:39;99181.03;;;12.00;100.00